Keilor, Australia
Current Conditions -  °F | °C
As of 2:10 PM on Saturday 01 Nov 2014 (Local Time) from YMML Reporting Station
Broken Clouds Broken Clouds  
Wind Chill: 63°   Ceiling: 3000
Heat Index: 63°   Visibility: 6mi
Dew Point: 36°   Wind: 25mph
Humidity: 37%   Direction: 240°WSW
Pressure: 29.74"   Gusts: 37mph
Location:  37.72°S, 144.83°E
Report Text: YMML 010310Z 24022G32KT 9999 SCT040 17/02 Q1007 INTER 0310/0610 25025G38KT 5000 SHRAGS BKN030 FM0310 MOD TURB BLW 5000FT
Loading
Personal Weather Stations






























Interactive Weather Map
Tropical Storm Tracking
New forecast layout! Learn more

10-Day Weather Forecast

Advertisements
Track Severe Weather on mobile